Scott AFB/Midamerica Airport
KBLV : now visible

Airfield :











YOU CAN JOIN US ON...

 
LOGIN :

Register | Disclaimer

   EN    FR    IT 

 









Legend :    VFR   Marginal VFR   IFR   Intensive IFR   Very Intensive IFR
Visi :
Ceiling :
>= 8 km
>= 3000ft
5 to 8 km
1000 to 3000 ft
1500m to 5 km
500 to 1000 ft
800 to 1500m
200 to 500 ft
< 800m
< 200 ft
Symbols :   Thunderstorms  Fog  Heavy snow  Heavy precipitations  Wind > 20 kt






- Airport Elevation : 459 ft


KBLV - Scott AFB/Midamerica

CURRENT METAR :
  • 141355Z AUTO 19009KT 10SM CLR 21/09 A2986 RMK AO2 SLP112 T02110090 $

EXPIRED METARs :
  • 141255Z AUTO 19007KT 10SM CLR 18/09 A2988 RMK AO2 SLP119 T01830094 $
  • 141155Z AUTO 18008KT 10SM CLR 15/08 A2988 RMK AO2 SLP119 T01500078 10176 20137 55001 $
  • 141055Z AUTO 18007KT 10SM CLR 14/07 A2987 RMK AO2 SLP116 T01380069 $
  • 140955Z AUTO 19003KT 10SM CLR 14/07 A2986 RMK AO2 SLP112 T01410072 $

TAF TAF KBLV
Valid from the 14 at 08:00 until the 15 at 14:00 UTC


140800Z 1408/1514 21009KT 9999 SCT250 QNH2985INS
BECMG 1414/1415 23012G20KT 9999 SCT150 QNH2980INS
BECMG 1421/1422 VRB06KT 9999 BKN040 QNH2980INS TX29/1421Z TN14/1412Z
KZKC FIR / North America



MET'MAP, your aeronautical weather chart ! - Copyright ORBIFLY December 2007 - Disclaimer

ORBIFLY MET'MAP TEAM :

Programming & Development : Alexandra Zaïnal
Original concept : Baudouin d'Aumeries
Technical & hardware support : Manuel Goepfert
Assistance : Marc-Olivier Méhu




SOURCES & CREDITS :

   NOAA       Earth
Advisory